Time;durP1;ratioP1;P1;durP2;ratioP2;P2;SDS_P1;SDS_P2;PMS_P1;PMS_P2;Temp;Humidity;BMP_temperature;BMP_pressure;BME280_temperature;BME280_humidity;BME280_pressure;Samples;Min_cycle;Max_cycle;Signal;HPM_P1;HPM_P2
2021/12/31 00:01:44;;;;;;;23.02;3.53;;;12.40;99.90;;;;;;4955435;28;20500;-66
2021/12/31 00:04:10;;;;;;;20.23;2.72;;;12.30;99.90;;;;;;4951864;28;20057;-66
2021/12/31 00:06:36;;;;;;;20.95;2.72;;;12.30;99.90;;;;;;4965082;28;20497;-67
2021/12/31 00:09:04;;;;;;;14.57;3.38;;;12.30;99.90;;;;;;4934549;28;20377;-67
2021/12/31 00:11:30;;;;;;;22.58;3.55;;;12.30;99.90;;;;;;4945531;28;20050;-67
2021/12/31 00:13:55;;;;;;;16.58;3.05;;;12.30;99.90;;;;;;4962016;28;20042;-67
2021/12/31 00:16:21;;;;;;;8.93;1.85;;;12.30;99.90;;;;;;4948144;28;20039;-67
2021/12/31 00:18:47;;;;;;;22.55;3.00;;;12.30;99.90;;;;;;4944235;28;20485;-67
2021/12/31 00:21:12;;;;;;;25.13;3.05;;;12.30;99.90;;;;;;4949173;28;20058;-66
2021/12/31 00:23:41;;;;;;;16.48;2.85;;;12.30;99.90;;;;;;4949324;28;20149;-67
2021/12/31 00:26:07;;;;;;;14.75;2.72;;;12.30;99.90;;;;;;4962332;28;20042;-67
2021/12/31 00:28:32;;;;;;;14.55;2.90;;;12.40;99.90;;;;;;4964812;28;20039;-67
2021/12/31 00:30:59;;;;;;;19.05;3.65;;;12.40;99.90;;;;;;4948431;28;20357;-67
2021/12/31 00:33:25;;;;;;;13.15;2.60;;;12.40;99.90;;;;;;4947093;28;20127;-66
2021/12/31 00:35:51;;;;;;;16.15;2.88;;;12.40;99.90;;;;;;4963955;28;20462;-67
2021/12/31 00:38:17;;;;;;;17.52;2.65;;;12.40;99.90;;;;;;4959962;28;20043;-67
2021/12/31 00:40:42;;;;;;;18.40;3.10;;;12.40;99.90;;;;;;4947541;28;20058;-66
2021/12/31 00:43:11;;;;;;;13.63;2.80;;;12.40;99.90;;;;;;4966999;28;20695;-66
2021/12/31 00:45:40;;;;;;;22.98;3.42;;;12.30;99.90;;;;;;4947787;28;20156;-67
2021/12/31 00:48:08;;;;;;;22.85;3.13;;;12.30;99.90;;;;;;4962624;28;20046;-67
2021/12/31 00:50:35;;;;;;;21.42;3.38;;;12.30;99.90;;;;;;4943052;28;20553;-67
2021/12/31 00:53:02;;;;;;;14.85;2.25;;;12.30;99.90;;;;;;4964975;28;20494;-67
2021/12/31 00:55:28;;;;;;;10.82;2.72;;;12.30;99.90;;;;;;4964859;28;20058;-67
2021/12/31 00:57:54;;;;;;;24.63;3.25;;;12.30;99.90;;;;;;4967348;28;20058;-67
2021/12/31 01:00:19;;;;;;;24.70;2.30;;;12.30;99.90;;;;;;4945800;29;20149;-66
2021/12/31 01:02:46;;;;;;;23.35;3.53;;;12.20;99.90;;;;;;4929855;28;20525;-66
2021/12/31 01:05:13;;;;;;;13.55;2.78;;;12.20;99.90;;;;;;4968125;28;20047;-66
2021/12/31 01:07:40;;;;;;;11.98;2.83;;;12.10;99.90;;;;;;4957209;28;20118;-67
2021/12/31 01:10:10;;;;;;;18.30;3.47;;;12.20;99.90;;;;;;4964713;28;20498;-67
2021/12/31 01:12:36;;;;;;;13.52;2.42;;;12.10;99.90;;;;;;4962751;28;20058;-66
2021/12/31 01:15:06;;;;;;;20.80;2.75;;;12.10;99.90;;;;;;4934966;28;20533;-66
2021/12/31 01:20:18;;;;;;;22.52;3.63;;;12.10;99.90;;;;;;4955295;28;20113;-66
2021/12/31 01:22:44;;;;;;;13.05;2.17;;;12.10;99.90;;;;;;4920032;29;20043;-67
2021/12/31 01:25:10;;;;;;;18.95;3.75;;;12.10;99.90;;;;;;4936590;28;20051;-67
2021/12/31 01:27:38;;;;;;;21.90;3.20;;;12.10;99.90;;;;;;4966785;28;20094;-66
2021/12/31 01:30:06;;;;;;;16.58;3.25;;;12.10;99.90;;;;;;4965482;28;20125;-67
2021/12/31 01:32:32;;;;;;;18.13;2.42;;;12.10;99.90;;;;;;4952312;28;20059;-66
2021/12/31 01:34:58;;;;;;;17.67;2.75;;;12.10;99.90;;;;;;4966577;28;20051;-67
2021/12/31 01:37:24;;;;;;;21.67;3.30;;;12.10;99.90;;;;;;4967490;28;20055;-67
2021/12/31 01:39:50;;;;;;;31.08;2.08;;;12.10;99.90;;;;;;4967997;28;20046;-66
2021/12/31 01:42:17;;;;;;;21.95;2.90;;;12.10;99.90;;;;;;4962432;28;20082;-67
2021/12/31 01:44:54;;;;;;;10.30;1.50;;;12.10;99.90;;;;;;4953210;28;20043;-67
2021/12/31 01:47:22;;;;;;;13.50;2.95;;;12.10;99.60;;;;;;4954500;28;20548;-66
2021/12/31 01:49:58;;;;;;;20.35;3.40;;;12.10;99.70;;;;;;4966491;28;20070;-67
2021/12/31 01:52:24;;;;;;;11.13;2.40;;;12.10;99.60;;;;;;4966177;28;20085;-66
2021/12/31 01:54:51;;;;;;;8.68;1.50;;;12.10;99.70;;;;;;4959098;28;20046;-67
2021/12/31 01:57:18;;;;;;;17.92;2.90;;;12.00;99.80;;;;;;4951003;28;20110;-67
2021/12/31 01:59:44;;;;;;;19.52;2.70;;;12.00;99.90;;;;;;4966904;28;20569;-67
2021/12/31 02:02:10;;;;;;;16.35;2.47;;;12.00;99.90;;;;;;4940926;28;20063;-67
2021/12/31 02:04:41;;;;;;;24.77;3.95;;;12.00;99.90;;;;;;4952619;28;20050;-66
2021/12/31 02:07:07;;;;;;;;;;;12.10;99.60;;;;;;4963333;28;20055;-67
2021/12/31 02:09:40;;;;;;;23.13;3.53;;;12.00;99.60;;;;;;4982995;28;19926;-67
2021/12/31 02:12:06;;;;;;;9.70;1.80;;;12.10;99.60;;;;;;4948645;28;20069;-67
2021/12/31 02:14:33;;;;;;;17.08;2.85;;;12.10;99.60;;;;;;4959837;28;20043;-66
2021/12/31 02:16:59;;;;;;;22.23;3.25;;;12.10;99.50;;;;;;4964844;28;20106;-66
2021/12/31 02:19:28;;;;;;;14.15;2.20;;;12.10;99.40;;;;;;4950398;28;20235;-67
2021/12/31 02:21:57;;;;;;;23.77;3.78;;;12.10;99.20;;;;;;4949314;28;20078;-66
2021/12/31 02:24:24;;;;;;;15.05;2.38;;;12.10;99.50;;;;;;4959794;28;20043;-67
2021/12/31 02:26:50;;;;;;;22.90;3.17;;;12.00;99.40;;;;;;4950594;28;20540;-66
2021/12/31 02:29:16;;;;;;;19.02;3.40;;;12.00;99.60;;;;;;4948926;28;20441;-66
2021/12/31 02:31:43;;;;;;;18.13;3.03;;;12.00;99.70;;;;;;4964972;28;20161;-67
2021/12/31 02:34:09;;;;;;;27.08;3.60;;;12.00;99.80;;;;;;4963459;28;20105;-67
2021/12/31 02:36:34;;;;;;;20.95;3.28;;;12.10;99.60;;;;;;4966083;28;20082;-66
2021/12/31 02:39:00;;;;;;;23.38;3.50;;;12.10;99.60;;;;;;4965535;28;20039;-67
2021/12/31 02:41:26;;;;;;;23.83;3.42;;;12.10;99.40;;;;;;4970142;28;20113;-67
2021/12/31 02:43:51;;;;;;;20.00;3.15;;;12.10;99.50;;;;;;4954338;28;20090;-66
2021/12/31 02:46:17;;;;;;;21.23;3.53;;;12.10;99.60;;;;;;4939695;28;20054;-66
2021/12/31 02:48:44;;;;;;;17.38;3.20;;;12.10;99.60;;;;;;4954250;28;20035;-67
2021/12/31 02:51:10;;;;;;;18.30;2.60;;;12.10;99.60;;;;;;4952424;28;20114;-67
2021/12/31 02:53:41;;;;;;;2.10;1.05;;;12.10;99.70;;;;;;4963668;28;20090;-66
2021/12/31 02:56:14;;;;;;;24.90;3.88;;;12.20;99.50;;;;;;4965508;28;20043;-67
2021/12/31 02:58:41;;;;;;;4.00;1.27;;;12.30;99.40;;;;;;4968938;28;20562;-67
2021/12/31 03:01:09;;;;;;;14.30;3.13;;;12.30;99.20;;;;;;4948483;29;20494;-67
2021/12/31 03:03:36;;;;;;;14.07;2.65;;;12.30;99.20;;;;;;4933593;28;20047;-67
2021/12/31 03:06:03;;;;;;;13.35;2.20;;;12.30;99.30;;;;;;4954054;28;20394;-67
2021/12/31 03:08:31;;;;;;;12.35;2.83;;;12.30;99.40;;;;;;4950823;28;20121;-66
2021/12/31 03:11:00;;;;;;;9.38;1.88;;;12.30;99.50;;;;;;4953402;28;20051;-67
2021/12/31 03:13:28;;;;;;;11.90;2.38;;;12.30;99.50;;;;;;4968702;28;20111;-67
2021/12/31 03:15:54;;;;;;;8.75;1.23;;;12.30;99.50;;;;;;4954015;28;20043;-67
2021/12/31 03:18:20;;;;;;;12.05;1.63;;;12.30;99.40;;;;;;4953351;28;20073;-67
2021/12/31 03:20:57;;;;;;;11.02;2.55;;;12.40;99.20;;;;;;4952246;28;20803;-67
2021/12/31 03:23:29;;;;;;;17.90;2.60;;;12.40;99.10;;;;;;4970076;28;20117;-67
2021/12/31 03:25:55;;;;;;;8.13;1.75;;;12.40;99.10;;;;;;4952422;28;20457;-67
2021/12/31 03:28:22;;;;;;;15.40;3.15;;;12.40;99.10;;;;;;4969815;28;20047;-67
2021/12/31 03:30:48;;;;;;;12.32;3.00;;;12.40;99.20;;;;;;4968835;28;20076;-67
2021/12/31 03:33:14;;;;;;;9.50;1.50;;;12.40;99.10;;;;;;4939143;28;20041;-67
2021/12/31 03:35:40;;;;;;;12.57;2.10;;;12.40;98.80;;;;;;4957308;28;20126;-67
2021/12/31 03:38:06;;;;;;;13.00;2.90;;;12.50;98.90;;;;;;4966055;28;20076;-67
2021/12/31 03:40:34;;;;;;;15.85;2.65;;;12.50;98.80;;;;;;4918268;29;20082;-67
2021/12/31 03:42:59;;;;;;;11.05;2.45;;;12.50;98.60;;;;;;4936139;28;20392;-67
2021/12/31 03:45:26;;;;;;;12.27;2.63;;;12.50;98.60;;;;;;4949134;28;20125;-67
2021/12/31 03:47:52;;;;;;;13.45;2.95;;;12.50;98.60;;;;;;4951856;28;20041;-66
2021/12/31 03:50:18;;;;;;;10.45;2.40;;;12.60;98.40;;;;;;4951745;28;20138;-67
2021/12/31 03:52:44;;;;;;;5.90;0.70;;;12.60;98.30;;;;;;4968471;28;20047;-67
2021/12/31 03:55:11;;;;;;;2.75;0.95;;;12.60;98.20;;;;;;4942022;28;20039;-67
2021/12/31 03:57:38;;;;;;;11.02;2.05;;;12.60;98.00;;;;;;4969332;28;20047;-67
2021/12/31 04:00:08;;;;;;;13.38;2.53;;;12.60;98.30;;;;;;4967298;28;20050;-67
2021/12/31 04:02:35;;;;;;;9.88;1.83;;;12.60;98.10;;;;;;4962735;28;20051;-67
2021/12/31 04:05:02;;;;;;;6.78;2.22;;;12.60;98.20;;;;;;4944093;28;20572;-67
2021/12/31 04:07:27;;;;;;;8.57;2.25;;;12.60;98.10;;;;;;4952964;28;20046;-67
2021/12/31 04:09:53;;;;;;;4.45;1.85;;;12.60;98.20;;;;;;4967872;28;20130;-66
2021/12/31 04:12:19;;;;;;;10.07;2.33;;;12.60;98.10;;;;;;4967715;28;20038;-67
2021/12/31 04:14:45;;;;;;;10.27;1.90;;;12.60;97.90;;;;;;4952049;28;20055;-67
2021/12/31 04:17:10;;;;;;;13.10;2.30;;;12.60;98.00;;;;;;4944645;28;20138;-67
2021/12/31 04:19:36;;;;;;;7.75;1.33;;;12.60;98.00;;;;;;4968999;28;20485;-67
2021/12/31 04:22:03;;;;;;;10.80;3.03;;;12.50;98.20;;;;;;4950846;28;20039;-67
2021/12/31 04:26:55;;;;;;;11.10;2.17;;;12.60;97.90;;;;;;4962101;28;20051;-67
2021/12/31 04:29:21;;;;;;;9.90;2.40;;;12.60;97.80;;;;;;4935226;28;20129;-67
2021/12/31 04:31:46;;;;;;;8.27;2.00;;;12.60;97.80;;;;;;4944185;29;20134;-67
2021/12/31 04:34:12;;;;;;;11.27;1.73;;;12.60;97.70;;;;;;4941206;29;20460;-67
2021/12/31 04:36:38;;;;;;;13.98;2.35;;;12.60;97.80;;;;;;4968463;28;20074;-67
2021/12/31 04:39:04;;;;;;;9.32;1.48;;;12.50;97.60;;;;;;4951702;28;20474;-67
2021/12/31 04:41:30;;;;;;;7.95;1.77;;;12.50;97.60;;;;;;4965672;28;20043;-67
2021/12/31 04:43:56;;;;;;;10.00;2.20;;;12.60;97.50;;;;;;4941386;28;20096;-67
2021/12/31 04:46:21;;;;;;;6.38;1.45;;;12.60;97.50;;;;;;4944653;28;20437;-67
2021/12/31 04:48:47;;;;;;;11.90;2.00;;;12.50;97.50;;;;;;4943802;29;20051;-67
2021/12/31 04:51:13;;;;;;;8.82;1.33;;;12.50;97.40;;;;;;4931250;29;20557;-67
2021/12/31 04:53:39;;;;;;;2.80;1.15;;;12.50;97.40;;;;;;4932599;29;20047;-67
2021/12/31 04:56:04;;;;;;;8.02;1.90;;;12.50;97.30;;;;;;4947647;29;20043;-68
2021/12/31 04:58:30;;;;;;;6.95;1.17;;;12.60;97.20;;;;;;4964208;28;20046;-67
2021/12/31 05:00:56;;;;;;;3.38;1.02;;;12.60;97.30;;;;;;4945356;29;20051;-67
2021/12/31 05:03:21;;;;;;;14.75;1.92;;;12.70;97.20;;;;;;4929847;29;20430;-67
2021/12/31 05:05:47;;;;;;;6.97;1.38;;;12.70;97.10;;;;;;4947617;29;20391;-67
2021/12/31 05:08:13;;;;;;;9.32;2.10;;;12.70;97.10;;;;;;4931061;29;20055;-67
2021/12/31 05:10:39;;;;;;;5.70;1.05;;;12.80;97.10;;;;;;4947340;28;20053;-67
2021/12/31 05:13:05;;;;;;;11.68;2.42;;;12.80;96.90;;;;;;4968162;28;20054;-67
2021/12/31 05:15:38;;;;;;;12.50;1.95;;;12.80;96.90;;;;;;4967498;28;20039;-67
2021/12/31 05:18:04;;;;;;;9.82;2.15;;;12.80;96.70;;;;;;4958763;28;20058;-67
2021/12/31 05:20:30;;;;;;;7.80;1.58;;;12.80;96.70;;;;;;4967341;28;20053;-67
2021/12/31 05:22:59;;;;;;;7.20;2.08;;;12.70;96.60;;;;;;4966484;28;20059;-67
2021/12/31 05:25:25;;;;;;;8.77;2.13;;;12.70;96.70;;;;;;4950815;28;20121;-67
2021/12/31 05:27:51;;;;;;;5.93;1.33;;;12.70;96.60;;;;;;4946557;28;20050;-67
2021/12/31 05:30:18;;;;;;;7.40;1.23;;;12.70;96.60;;;;;;4949631;28;20408;-67
2021/12/31 05:32:45;;;;;;;9.32;2.45;;;12.80;96.80;;;;;;4965958;28;20064;-67
2021/12/31 05:35:11;;;;;;;8.52;1.45;;;12.80;96.80;;;;;;4967052;28;20042;-67
2021/12/31 05:37:37;;;;;;;5.28;1.73;;;12.80;97.10;;;;;;4965705;28;20062;-67
2021/12/31 05:40:03;;;;;;;9.07;1.52;;;12.80;96.40;;;;;;4965189;28;20042;-67
2021/12/31 05:42:29;;;;;;;3.45;1.02;;;12.80;96.30;;;;;;4966666;28;20667;-67
2021/12/31 05:44:55;;;;;;;7.10;1.80;;;12.90;96.10;;;;;;4966477;28;20046;-67
2021/12/31 05:47:21;;;;;;;4.55;1.52;;;12.90;96.20;;;;;;4950333;28;20047;-67
2021/12/31 05:49:46;;;;;;;6.13;1.77;;;12.80;96.30;;;;;;4938572;28;20473;-67
2021/12/31 05:52:12;;;;;;;14.52;1.80;;;12.80;96.60;;;;;;4965405;28;20045;-67
2021/12/31 05:54:38;;;;;;;1.17;0.95;;;12.80;96.60;;;;;;4967074;28;20139;-67
2021/12/31 05:57:04;;;;;;;3.88;1.10;;;12.80;96.50;;;;;;4949007;28;20050;-67
2021/12/31 05:59:29;;;;;;;9.20;2.13;;;12.70;96.70;;;;;;4943554;29;20387;-67
2021/12/31 06:01:55;;;;;;;4.43;1.65;;;12.80;96.60;;;;;;4930920;29;20058;-67
2021/12/31 06:04:22;;;;;;;5.43;1.35;;;12.70;96.70;;;;;;4940337;28;20046;-67
2021/12/31 06:06:49;;;;;;;5.43;1.48;;;12.80;96.80;;;;;;4966725;28;20406;-67
2021/12/31 06:09:14;;;;;;;10.15;2.05;;;12.90;96.70;;;;;;4965062;28;20041;-67
2021/12/31 06:11:41;;;;;;;7.85;2.50;;;12.80;96.50;;;;;;4940833;28;20050;-67
2021/12/31 06:14:09;;;;;;;4.20;1.88;;;12.90;96.40;;;;;;4949041;28;20078;-67
2021/12/31 06:16:40;;;;;;;4.90;1.30;;;12.90;96.40;;;;;;4966617;28;20042;-67
2021/12/31 06:19:07;;;;;;;7.72;1.45;;;12.90;96.40;;;;;;4965510;28;20051;-67
2021/12/31 06:21:39;;;;;;;7.35;2.25;;;12.90;96.30;;;;;;4939246;28;20050;-67
2021/12/31 06:24:06;;;;;;;4.97;1.98;;;12.90;96.40;;;;;;4966663;28;20062;-67
2021/12/31 06:26:32;;;;;;;8.95;2.22;;;12.90;96.30;;;;;;4949039;28;20301;-67
2021/12/31 06:28:58;;;;;;;7.75;1.88;;;12.90;96.20;;;;;;4966877;28;20433;-67
2021/12/31 06:31:25;;;;;;;3.88;1.58;;;12.90;96.30;;;;;;4935778;29;20051;-67
2021/12/31 06:33:51;;;;;;;4.30;1.55;;;12.90;96.20;;;;;;4948827;28;20699;-67
2021/12/31 06:36:17;;;;;;;1.88;1.35;;;12.90;96.00;;;;;;4961839;28;20383;-67
2021/12/31 06:38:43;;;;;;;6.07;1.85;;;13.00;96.10;;;;;;4958612;28;20110;-67
2021/12/31 06:41:09;;;;;;;7.47;1.95;;;13.00;95.80;;;;;;4956884;28;20077;-67
2021/12/31 06:43:35;;;;;;;4.60;1.70;;;13.00;95.80;;;;;;4942870;29;20047;-67
2021/12/31 06:46:01;;;;;;;5.72;1.90;;;13.00;95.60;;;;;;4940514;29;20494;-67
2021/12/31 06:48:27;;;;;;;5.75;1.75;;;13.00;95.60;;;;;;4945367;29;20454;-67
2021/12/31 06:50:52;;;;;;;8.88;1.92;;;12.90;95.70;;;;;;4947527;29;20048;-67
2021/12/31 06:53:18;;;;;;;8.80;1.90;;;12.90;95.80;;;;;;4959425;28;20410;-67
2021/12/31 06:55:44;;;;;;;6.47;1.63;;;12.90;95.90;;;;;;4947160;29;20035;-67
2021/12/31 06:58:10;;;;;;;7.15;1.85;;;12.90;95.80;;;;;;4962224;28;20055;-67
2021/12/31 07:00:36;;;;;;;3.50;1.73;;;12.90;95.80;;;;;;4946150;29;20035;-67
2021/12/31 07:03:09;;;;;;;7.07;1.52;;;12.90;95.70;;;;;;4946414;28;20051;-67
2021/12/31 07:05:35;;;;;;;4.45;1.63;;;12.90;95.60;;;;;;4961371;28;20198;-67
2021/12/31 07:08:01;;;;;;;4.28;1.63;;;12.90;95.70;;;;;;4947108;29;20766;-67
2021/12/31 07:10:28;;;;;;;4.53;1.92;;;12.90;95.50;;;;;;4961322;28;20118;-67
2021/12/31 07:13:04;;;;;;;6.65;1.65;;;12.90;95.50;;;;;;4934910;28;20078;-67
2021/12/31 07:15:30;;;;;;;11.13;1.63;;;12.90;96.00;;;;;;4939783;29;20126;-67
2021/12/31 07:17:56;;;;;;;4.85;1.05;;;12.90;95.50;;;;;;4946078;29;20135;-67
2021/12/31 07:20:22;;;;;;;6.68;1.65;;;12.90;95.40;;;;;;4962617;28;20043;-67
2021/12/31 07:22:48;;;;;;;7.47;1.95;;;12.90;95.40;;;;;;4945529;28;20043;-67
2021/12/31 07:25:14;;;;;;;4.68;1.42;;;12.90;95.30;;;;;;4949500;28;20040;-67
2021/12/31 07:27:40;;;;;;;5.50;1.10;;;12.90;95.30;;;;;;4948428;29;20058;-67
2021/12/31 07:30:06;;;;;;;4.22;1.63;;;12.90;95.00;;;;;;4950294;29;20055;-67
2021/12/31 07:32:36;;;;;;;10.73;2.10;;;12.90;95.20;;;;;;4947489;29;20728;-68
2021/12/31 07:35:03;;;;;;;7.65;2.03;;;12.80;95.30;;;;;;4949981;28;20050;-67
2021/12/31 07:37:28;;;;;;;3.60;1.50;;;12.80;95.00;;;;;;4951054;28;20062;-67
2021/12/31 07:40:00;;;;;;;4.75;1.52;;;12.80;95.00;;;;;;4965140;28;20047;-67
2021/12/31 07:42:26;;;;;;;6.35;1.77;;;12.80;95.00;;;;;;4949623;29;20508;-67
2021/12/31 07:44:51;;;;;;;7.07;1.73;;;12.80;95.10;;;;;;4955278;28;20043;-67
2021/12/31 07:47:18;;;;;;;1.85;1.10;;;12.80;95.30;;;;;;4949808;29;20055;-67
2021/12/31 07:49:43;;;;;;;4.38;1.05;;;12.70;95.10;;;;;;4948433;29;20062;-67
2021/12/31 07:52:09;;;;;;;1.75;0.75;;;12.70;95.10;;;;;;4949677;29;20047;-67
2021/12/31 07:54:35;;;;;;;5.03;1.40;;;12.70;95.30;;;;;;4960701;28;20398;-67
2021/12/31 07:57:00;;;;;;;4.63;1.60;;;12.70;95.20;;;;;;4948090;29;20054;-67
2021/12/31 07:59:26;;;;;;;2.17;0.93;;;12.70;95.10;;;;;;4950835;28;20114;-67
2021/12/31 08:01:52;;;;;;;3.13;1.27;;;12.80;94.70;;;;;;4957835;28;20103;-67
2021/12/31 08:04:18;;;;;;;4.60;1.40;;;12.80;94.60;;;;;;4933379;29;20047;-67
2021/12/31 08:06:43;;;;;;;2.75;1.35;;;12.80;94.40;;;;;;4941446;29;20131;-67
2021/12/31 08:09:09;;;;;;;5.20;1.52;;;12.80;94.50;;;;;;4933207;29;20043;-67
2021/12/31 08:11:34;;;;;;;2.90;1.30;;;12.80;94.50;;;;;;4942781;29;20070;-67
2021/12/31 08:14:00;;;;;;;4.55;1.42;;;12.80;94.50;;;;;;4932489;29;20463;-67
2021/12/31 08:16:26;;;;;;;4.47;1.20;;;12.80;94.70;;;;;;4936678;29;20043;-67
2021/12/31 08:18:51;;;;;;;6.85;1.20;;;12.80;94.70;;;;;;4949457;29;20039;-67
2021/12/31 08:21:17;;;;;;;2.55;0.90;;;12.80;94.70;;;;;;4933153;29;20042;-67
2021/12/31 08:23:43;;;;;;;2.92;1.40;;;12.80;94.70;;;;;;4947853;29;20058;-67
2021/12/31 08:26:08;;;;;;;5.85;1.45;;;12.80;94.80;;;;;;4917020;29;20494;-67
2021/12/31 08:28:34;;;;;;;9.13;1.50;;;12.70;94.70;;;;;;4916259;29;20118;-67
2021/12/31 08:31:00;;;;;;;2.72;1.13;;;12.70;94.90;;;;;;4949872;29;20506;-67
2021/12/31 08:33:26;;;;;;;2.30;1.30;;;12.70;95.20;;;;;;4936400;29;20059;-67
2021/12/31 08:35:53;;;;;;;5.50;1.77;;;12.70;94.90;;;;;;4947425;28;20054;-67
2021/12/31 08:38:19;;;;;;;5.75;1.60;;;12.80;94.90;;;;;;4947954;28;20047;-67
2021/12/31 08:40:44;;;;;;;2.40;1.48;;;12.80;94.70;;;;;;4956017;28;20892;-67
2021/12/31 08:43:10;;;;;;;4.85;1.35;;;12.90;94.70;;;;;;4933226;29;20851;-67
2021/12/31 08:45:36;;;;;;;4.45;1.45;;;12.90;94.70;;;;;;4947926;28;20086;-67
2021/12/31 08:48:03;;;;;;;5.22;1.42;;;12.90;94.50;;;;;;4936078;29;20403;-67
2021/12/31 08:50:29;;;;;;;2.72;1.42;;;12.80;94.50;;;;;;4915983;29;20861;-67
2021/12/31 08:52:55;;;;;;;5.60;1.50;;;12.80;94.70;;;;;;4962427;28;20052;-67
2021/12/31 08:55:21;;;;;;;0.80;0.70;;;12.80;94.70;;;;;;4932398;29;20043;-67
2021/12/31 08:57:48;;;;;;;2.33;1.17;;;12.80;94.70;;;;;;4927785;29;20055;-67
2021/12/31 09:00:14;;;;;;;3.20;1.23;;;12.80;94.80;;;;;;4946686;29;20454;-67
2021/12/31 09:02:40;;;;;;;7.10;1.90;;;12.80;94.70;;;;;;4928108;29;20043;-67
2021/12/31 09:05:07;;;;;;;4.20;1.30;;;12.80;94.70;;;;;;4945463;29;20098;-67
2021/12/31 09:07:33;;;;;;;7.50;1.55;;;12.80;94.70;;;;;;4931225;29;20442;-67
2021/12/31 09:09:59;;;;;;;4.63;1.23;;;12.80;94.60;;;;;;4947618;28;20055;-67
2021/12/31 09:12:25;;;;;;;7.82;2.50;;;12.80;94.60;;;;;;4944399;29;20082;-67
2021/12/31 09:14:51;;;;;;;4.75;1.27;;;12.80;94.40;;;;;;4946649;29;20421;-67
2021/12/31 09:17:16;;;;;;;9.30;1.50;;;12.90;94.60;;;;;;4964458;28;20054;-67
2021/12/31 09:19:42;;;;;;;4.35;1.40;;;12.80;94.80;;;;;;4946213;28;20039;-67
2021/12/31 09:22:09;;;;;;;0.82;0.73;;;12.80;94.40;;;;;;4964745;28;20050;-67
2021/12/31 09:24:35;;;;;;;7.55;1.50;;;12.80;94.20;;;;;;4962940;28;20043;-67
2021/12/31 09:27:01;;;;;;;1.63;0.75;;;12.80;94.40;;;;;;4948121;28;20118;-67
2021/12/31 09:29:27;;;;;;;2.92;0.93;;;12.80;94.40;;;;;;4941497;29;20478;-67
2021/12/31 09:31:54;;;;;;;2.33;1.45;;;12.80;94.60;;;;;;4964202;28;20098;-67
2021/12/31 09:34:20;;;;;;;5.38;1.65;;;12.70;95.10;;;;;;4950986;28;20061;-67
2021/12/31 09:36:46;;;;;;;4.95;1.45;;;12.70;94.80;;;;;;4965436;28;20326;-66
2021/12/31 09:39:12;;;;;;;1.48;1.17;;;12.70;94.50;;;;;;4947213;29;20065;-67
2021/12/31 09:41:38;;;;;;;2.65;0.88;;;12.80;94.40;;;;;;4930533;29;20066;-66
2021/12/31 09:44:04;;;;;;;1.85;1.08;;;12.70;94.50;;;;;;4941845;28;20057;-66
2021/12/31 09:46:31;;;;;;;4.00;1.45;;;12.70;94.70;;;;;;4965999;28;20043;-67
2021/12/31 09:48:57;;;;;;;2.65;1.30;;;12.70;94.30;;;;;;4933490;28;20480;-66
2021/12/31 09:51:24;;;;;;;7.30;1.75;;;12.70;94.70;;;;;;4946587;28;20059;-67
2021/12/31 09:53:52;;;;;;;3.22;1.25;;;12.70;94.70;;;;;;4932599;28;20523;-66
2021/12/31 09:56:17;;;;;;;3.63;1.85;;;12.70;95.00;;;;;;4955123;28;20481;-66
2021/12/31 09:58:43;;;;;;;5.00;1.88;;;12.60;94.60;;;;;;4950051;28;20078;-66
2021/12/31 10:01:09;;;;;;;3.40;1.35;;;12.70;94.50;;;;;;4951893;28;20470;-67
2021/12/31 10:03:37;;;;;;;4.68;1.65;;;12.70;94.60;;;;;;4962826;28;20042;-66
2021/12/31 10:06:11;;;;;;;2.95;1.27;;;12.60;94.60;;;;;;4964475;28;20512;-66
2021/12/31 10:08:42;;;;;;;7.90;1.70;;;12.70;94.70;;;;;;4966697;28;20324;-66
2021/12/31 10:11:17;;;;;;;4.85;1.63;;;12.60;94.90;;;;;;4960094;28;20078;-66
2021/12/31 10:14:03;;;;;;;0.98;0.63;;;12.60;94.80;;;;;;4948413;28;20053;-66
2021/12/31 10:16:31;;;;;;;3.05;1.10;;;12.60;94.50;;;;;;4962769;28;20050;-66
2021/12/31 10:19:05;;;;;;;3.50;1.35;;;12.60;94.80;;;;;;4946249;28;20066;-66
2021/12/31 10:21:50;;;;;;;4.63;0.82;;;12.60;95.20;;;;;;4959821;28;20047;-66
2021/12/31 10:24:34;;;;;;;2.30;1.20;;;12.50;95.80;;;;;;4961728;28;20218;-66
2021/12/31 10:27:19;;;;;;;5.75;1.60;;;12.50;96.10;;;;;;4966517;28;20034;-66
2021/12/31 10:30:03;;;;;;;1.60;1.05;;;12.50;96.40;;;;;;4947843;28;20509;-66
2021/12/31 10:32:36;;;;;;;2.45;1.13;;;12.40;96.60;;;;;;4950004;28;20074;-66
2021/12/31 10:35:10;;;;;;;5.43;1.88;;;12.40;96.80;;;;;;4948537;28;20498;-66
2021/12/31 10:37:47;;;;;;;2.03;1.02;;;12.40;97.30;;;;;;4929633;29;20055;-66
2021/12/31 10:40:29;;;;;;;5.85;1.63;;;12.30;97.50;;;;;;4918745;29;20090;-66
2021/12/31 10:43:15;;;;;;;4.57;1.42;;;12.30;97.60;;;;;;4948492;28;20426;-66
2021/12/31 10:45:58;;;;;;;8.63;2.45;;;12.30;97.70;;;;;;4950517;28;20053;-66
2021/12/31 10:49:03;;;;;;;4.13;1.63;;;12.30;97.70;;;;;;4952430;28;20085;-66
2021/12/31 10:51:38;;;;;;;5.68;1.92;;;12.30;97.70;;;;;;4897429;28;20401;-66
2021/12/31 10:54:15;;;;;;;5.78;1.48;;;12.30;97.30;;;;;;4929929;29;20055;-66
2021/12/31 10:56:41;;;;;;;3.58;1.20;;;12.40;97.30;;;;;;4948169;28;20047;-66
2021/12/31 10:59:07;;;;;;;3.53;1.20;;;12.40;97.20;;;;;;4937871;28;20587;-66
2021/12/31 11:01:33;;;;;;;5.68;1.88;;;12.40;97.10;;;;;;4955079;28;20043;-66
2021/12/31 11:03:59;;;;;;;13.70;2.30;;;12.40;97.10;;;;;;4956715;28;20520;-66
2021/12/31 11:06:25;;;;;;;4.88;2.05;;;12.40;97.30;;;;;;4940958;29;20347;-66
2021/12/31 11:08:54;;;;;;;3.83;1.98;;;12.40;97.10;;;;;;4951922;28;20058;-66
2021/12/31 11:11:22;;;;;;;4.57;2.17;;;12.30;97.10;;;;;;4952407;28;20081;-66
2021/12/31 11:13:49;;;;;;;4.82;2.25;;;12.30;97.20;;;;;;4965955;28;20125;-66
2021/12/31 11:16:15;;;;;;;6.07;2.30;;;12.30;97.10;;;;;;4945051;28;20047;-66
2021/12/31 11:18:41;;;;;;;3.25;1.73;;;12.30;97.40;;;;;;4951385;28;20042;-66
2021/12/31 11:21:09;;;;;;;6.03;2.05;;;12.30;97.50;;;;;;4933094;28;20040;-66
2021/12/31 11:23:36;;;;;;;3.10;1.60;;;12.30;97.50;;;;;;4951223;28;20445;-66
2021/12/31 11:26:05;;;;;;;4.60;1.48;;;12.30;97.30;;;;;;4948030;29;20123;-66
2021/12/31 11:28:37;;;;;;;5.55;2.50;;;12.30;97.40;;;;;;4938346;28;20497;-66
2021/12/31 11:31:18;;;;;;;2.38;1.33;;;12.30;97.30;;;;;;4960913;28;20066;-65
2021/12/31 11:33:46;;;;;;;1.50;1.40;;;12.30;97.20;;;;;;4949650;29;20097;-66
2021/12/31 11:36:12;;;;;;;9.98;1.83;;;12.30;97.20;;;;;;4937645;29;20048;-66
2021/12/31 11:38:42;;;;;;;1.67;1.35;;;12.30;97.20;;;;;;4933209;29;20046;-66
2021/12/31 11:41:15;;;;;;;6.22;2.50;;;12.30;97.20;;;;;;4932960;29;20509;-66
2021/12/31 11:43:42;;;;;;;4.97;1.75;;;12.30;97.50;;;;;;4950549;29;20051;-66
2021/12/31 11:46:12;;;;;;;7.55;2.22;;;12.20;97.80;;;;;;4938895;29;20047;-65
2021/12/31 11:48:45;;;;;;;3.65;1.63;;;12.20;98.30;;;;;;4962323;28;20051;-66
2021/12/31 11:51:12;;;;;;;5.60;1.92;;;12.10;98.60;;;;;;4932656;29;20138;-65
2021/12/31 11:53:56;;;;;;;6.50;2.50;;;12.10;99.00;;;;;;4950938;29;20043;-66
2021/12/31 11:56:36;;;;;;;4.55;2.20;;;12.10;99.10;;;;;;4932898;29;20078;-65
2021/12/31 11:59:11;;;;;;;7.97;2.25;;;12.10;99.30;;;;;;4932039;29;20158;-65
2021/12/31 12:01:37;;;;;;;4.80;1.27;;;12.10;99.50;;;;;;4933235;29;20158;-65
2021/12/31 12:04:29;;;;;;;8.85;2.58;;;12.00;99.60;;;;;;4931676;29;20354;-65
2021/12/31 12:06:57;;;;;;;6.72;1.77;;;12.00;99.80;;;;;;4949339;29;20070;-66
2021/12/31 12:09:46;;;;;;;4.60;1.92;;;12.00;99.90;;;;;;4949496;29;20047;-66
2021/12/31 12:12:14;;;;;;;6.03;1.88;;;12.00;99.90;;;;;;4938810;29;20458;-66
2021/12/31 12:14:40;;;;;;;10.55;2.50;;;11.90;99.90;;;;;;4944975;28;20130;-66
2021/12/31 12:17:14;;;;;;;6.30;2.30;;;11.90;99.90;;;;;;4948314;28;20065;-66
2021/12/31 12:19:51;;;;;;;4.10;1.77;;;11.90;99.90;;;;;;4939563;29;20039;-66
2021/12/31 12:22:33;;;;;;;8.40;2.60;;;11.90;99.90;;;;;;4941011;29;20086;-66
2021/12/31 12:25:01;;;;;;;4.10;0.90;;;11.90;99.90;;;;;;4948344;28;20036;-66
2021/12/31 12:27:27;;;;;;;4.47;1.73;;;11.90;99.90;;;;;;4948479;28;20043;-66
2021/12/31 12:29:54;;;;;;;2.22;1.63;;;11.90;99.90;;;;;;4948193;29;20118;-66
2021/12/31 12:32:52;;;;;;;1.45;1.23;;;11.90;99.90;;;;;;4949234;28;20572;-66
2021/12/31 12:35:28;;;;;;;2.10;1.42;;;11.90;99.90;;;;;;4949882;29;20058;-66
2021/12/31 12:38:02;;;;;;;5.53;1.40;;;11.90;99.90;;;;;;4930072;29;20210;-66
2021/12/31 12:40:40;;;;;;;4.57;1.33;;;11.80;99.90;;;;;;4947574;28;20043;-66
2021/12/31 12:43:30;;;;;;;3.60;1.75;;;11.80;99.90;;;;;;4927471;29;20055;-66
2021/12/31 12:46:02;;;;;;;4.57;1.85;;;11.80;99.90;;;;;;4961642;28;20043;-66
2021/12/31 12:48:37;;;;;;;5.47;1.13;;;11.80;99.90;;;;;;4946963;28;20042;-66
2021/12/31 12:51:11;;;;;;;2.45;1.70;;;11.80;99.90;;;;;;4959952;28;20039;-66
2021/12/31 12:53:41;;;;;;;2.75;1.20;;;11.80;99.90;;;;;;4947448;28;20046;-66